Time;durP1;ratioP1;P1;durP2;ratioP2;P2;SDS_P1;SDS_P2;PMS_P1;PMS_P2;Temp;Humidity;BMP_temperature;BMP_pressure;BME280_temperature;BME280_humidity;BME280_pressure;Samples;Min_cycle;Max_cycle;Signal;HPM_P1;HPM_P2
2021/07/10 00:00:22;;;;;;;14.50;11.97;;;19.50;99.90;;;;;;4929870;29;20194;-86
2021/07/10 00:03:10;;;;;;;15.17;11.57;;;19.40;99.90;;;;;;4938070;28;20230;-87
2021/07/10 00:05:39;;;;;;;17.07;12.50;;;19.40;99.90;;;;;;4941739;28;20238;-86
2021/07/10 00:08:09;;;;;;;17.70;13.17;;;19.40;99.90;;;;;;4939630;28;20213;-86
2021/07/10 00:10:37;;;;;;;15.00;12.93;;;19.40;99.90;;;;;;4939665;29;20517;-86
2021/07/10 00:13:09;;;;;;;15.73;13.27;;;19.40;99.90;;;;;;4942021;29;20233;-87
2021/07/10 00:15:38;;;;;;;18.47;14.07;;;19.50;99.90;;;;;;4940340;29;20445;-89
2021/07/10 00:18:07;;;;;;;18.13;14.57;;;19.50;99.90;;;;;;4939791;28;20199;-87
2021/07/10 00:20:36;;;;;;;20.30;16.13;;;19.50;99.90;;;;;;4943663;28;20202;-84
2021/07/10 00:23:05;;;;;;;22.80;16.97;;;19.50;99.90;;;;;;4939442;28;20205;-86
2021/07/10 00:25:34;;;;;;;25.70;18.70;;;19.50;99.90;;;;;;4934558;28;20206;-87
2021/07/10 00:28:02;;;;;;;25.23;19.43;;;19.50;99.90;;;;;;4932825;28;20212;-87
2021/07/10 00:30:33;;;;;;;28.00;21.03;;;19.50;99.90;;;;;;4940008;28;20214;-87
2021/07/10 00:33:02;;;;;;;31.37;22.67;;;19.50;99.90;;;;;;4946501;28;20238;-88
2021/07/10 00:35:32;;;;;;;30.47;22.30;;;19.50;99.90;;;;;;4940485;28;20199;-88
2021/07/10 00:38:01;;;;;;;28.50;22.83;;;19.50;99.90;;;;;;4931901;29;20220;-87
2021/07/10 00:40:29;;;;;;;33.50;24.40;;;19.60;99.90;;;;;;4925032;29;20209;-86
2021/07/10 00:42:58;;;;;;;33.67;23.93;;;19.60;99.90;;;;;;4929035;29;20210;-85
2021/07/10 00:45:27;;;;;;;31.67;24.30;;;19.60;99.90;;;;;;4923983;29;20233;-86
2021/07/10 00:47:57;;;;;;;33.77;25.43;;;19.60;99.90;;;;;;4933575;29;20226;-88
2021/07/10 00:50:27;;;;;;;40.37;27.23;;;19.60;99.90;;;;;;4929321;29;20764;-87
2021/07/10 00:52:56;;;;;;;38.27;26.30;;;19.60;99.90;;;;;;4918359;29;20233;-86
2021/07/10 00:55:25;;;;;;;37.77;26.77;;;19.60;99.90;;;;;;4918029;29;20212;-86
2021/07/10 00:57:55;;;;;;;38.47;26.87;;;19.50;99.90;;;;;;4923313;29;20233;-87
2021/07/10 01:00:25;;;;;;;41.40;27.80;;;19.50;99.90;;;;;;4928988;29;20206;-87
2021/07/10 01:02:55;;;;;;;38.70;26.60;;;19.50;99.90;;;;;;4920065;29;20218;-86
2021/07/10 01:05:28;;;;;;;34.80;26.17;;;19.60;99.90;;;;;;4898706;29;20241;-87
2021/07/10 01:07:57;;;;;;;36.00;27.23;;;19.60;99.90;;;;;;4923471;29;20213;-86
2021/07/10 01:10:27;;;;;;;37.43;27.13;;;19.50;99.90;;;;;;4937142;29;20738;-86
2021/07/10 01:12:57;;;;;;;41.13;28.47;;;19.50;99.90;;;;;;4916536;29;20211;-86
2021/07/10 01:15:27;;;;;;;37.60;26.40;;;19.50;99.90;;;;;;4935156;29;20206;-86
2021/07/10 01:17:58;;;;;;;37.87;27.80;;;19.50;99.90;;;;;;4929358;28;20205;-88
2021/07/10 01:20:29;;;;;;;37.87;27.23;;;19.50;99.90;;;;;;4929495;29;20214;-86
2021/07/10 01:22:59;;;;;;;38.97;28.33;;;19.50;99.90;;;;;;4911302;29;20214;-86
2021/07/10 01:25:28;;;;;;;38.50;28.53;;;19.50;99.90;;;;;;4933711;29;20237;-88
2021/07/10 01:27:57;;;;;;;34.13;26.70;;;19.50;99.90;;;;;;4934722;29;20363;-87
2021/07/10 01:30:27;;;;;;;39.00;27.60;;;19.50;99.90;;;;;;4920361;29;20217;-86
2021/07/10 01:32:59;;;;;;;36.93;27.07;;;19.50;99.90;;;;;;4915714;29;20289;-87
2021/07/10 01:35:28;;;;;;;40.30;28.37;;;19.40;99.90;;;;;;4925407;29;20222;-85
2021/07/10 01:37:57;;;;;;;35.67;26.00;;;19.30;99.90;;;;;;4916540;29;20269;-87
2021/07/10 01:40:27;;;;;;;34.60;27.93;;;19.30;99.90;;;;;;4920883;29;20210;-86
2021/07/10 01:42:57;;;;;;;36.10;26.37;;;19.30;99.90;;;;;;4923373;29;20198;-90
2021/07/10 01:45:26;;;;;;;35.80;26.93;;;19.40;99.90;;;;;;4925987;29;20704;-85
2021/07/10 01:47:54;;;;;;;39.53;29.20;;;19.30;99.90;;;;;;4931808;29;20212;-86
2021/07/10 01:50:24;;;;;;;39.47;27.23;;;19.30;99.90;;;;;;4928133;29;20237;-86
2021/07/10 01:52:53;;;;;;;35.07;27.90;;;19.30;99.90;;;;;;4908551;29;20991;-87
2021/07/10 01:55:23;;;;;;;35.60;28.27;;;19.30;99.90;;;;;;4911408;29;20337;-87
2021/07/10 01:57:54;;;;;;;33.50;26.93;;;19.40;99.90;;;;;;4911792;29;20621;-88
2021/07/10 02:00:25;;;;;;;43.47;28.37;;;19.20;99.90;;;;;;4920929;29;20209;-85
2021/07/10 02:02:54;;;;;;;37.43;27.77;;;19.20;99.90;;;;;;4914721;29;20225;-89
2021/07/10 02:05:25;;;;;;;35.70;26.90;;;19.10;99.90;;;;;;4920339;29;20230;-87
2021/07/10 02:07:54;;;;;;;40.57;29.83;;;19.10;99.90;;;;;;4909353;29;20297;-88
2021/07/10 02:10:23;;;;;;;37.43;27.37;;;19.20;99.90;;;;;;4928518;29;20299;-86
2021/07/10 02:12:56;;;;;;;41.47;30.00;;;19.20;99.90;;;;;;4912248;29;20238;-86
2021/07/10 02:15:26;;;;;;;42.50;28.43;;;19.30;99.90;;;;;;4934864;29;20217;-88
2021/07/10 02:17:58;;;;;;;38.13;28.70;;;19.20;99.90;;;;;;4932917;28;20202;-86
2021/07/10 02:20:28;;;;;;;42.03;27.83;;;19.30;99.90;;;;;;4919400;29;20206;-86
2021/07/10 02:22:58;;;;;;;33.77;26.03;;;19.30;99.90;;;;;;4918013;29;21033;-87
2021/07/10 02:25:31;;;;;;;32.90;26.50;;;19.30;99.90;;;;;;4916179;29;20316;-87
2021/07/10 02:28:04;;;;;;;32.47;26.43;;;19.30;99.90;;;;;;4911195;29;20222;-86
2021/07/10 02:30:35;;;;;;;32.63;25.90;;;19.40;99.90;;;;;;4918888;29;20206;-87
2021/07/10 02:33:07;;;;;;;34.80;25.53;;;19.40;99.90;;;;;;4913264;29;20394;-86
2021/07/10 02:35:36;;;;;;;30.67;25.53;;;19.40;99.90;;;;;;4920499;29;20605;-86
2021/07/10 02:38:05;;;;;;;34.30;26.23;;;19.30;99.90;;;;;;4915588;29;20222;-88
2021/07/10 02:40:36;;;;;;;36.23;26.10;;;19.30;99.90;;;;;;4924992;29;20206;-89
2021/07/10 02:43:06;;;;;;;32.60;24.20;;;19.30;99.90;;;;;;4917639;29;20214;-86
2021/07/10 02:45:36;;;;;;;33.80;24.80;;;19.30;99.90;;;;;;4913519;29;20467;-88
2021/07/10 02:48:08;;;;;;;27.90;23.53;;;19.30;99.90;;;;;;4913246;29;20602;-89
2021/07/10 02:50:37;;;;;;;32.53;24.37;;;19.40;99.90;;;;;;4928108;29;20222;-86
2021/07/10 02:53:07;;;;;;;29.70;23.90;;;19.40;99.90;;;;;;4917804;29;20206;-86
2021/07/10 02:55:36;;;;;;;31.47;24.87;;;19.40;99.90;;;;;;4939016;29;20210;-87
2021/07/10 02:58:08;;;;;;;32.53;24.70;;;19.30;99.90;;;;;;4930447;29;20210;-86
2021/07/10 03:00:36;;;;;;;28.83;24.27;;;19.40;99.90;;;;;;4938039;29;20206;-87
2021/07/10 03:03:05;;;;;;;32.03;24.53;;;19.40;99.90;;;;;;4938786;29;20491;-86
2021/07/10 03:05:34;;;;;;;32.77;24.47;;;19.40;99.90;;;;;;4940661;29;20222;-87
2021/07/10 03:08:05;;;;;;;33.07;24.73;;;19.50;99.90;;;;;;4938659;29;20210;-86
2021/07/10 03:10:34;;;;;;;30.93;24.03;;;19.50;99.90;;;;;;4938166;29;20213;-84
2021/07/10 03:13:03;;;;;;;31.93;24.83;;;19.50;99.90;;;;;;4941744;29;20221;-85
2021/07/10 03:15:34;;;;;;;30.13;24.20;;;19.50;99.90;;;;;;4917236;29;20213;-87
2021/07/10 03:18:04;;;;;;;29.57;23.30;;;19.60;99.90;;;;;;4941256;29;20528;-86
2021/07/10 03:20:34;;;;;;;30.03;23.03;;;19.60;99.90;;;;;;4945316;28;20213;-85
2021/07/10 03:23:03;;;;;;;30.43;23.13;;;19.60;99.90;;;;;;4934463;29;20270;-87
2021/07/10 03:25:32;;;;;;;29.23;25.07;;;19.60;99.90;;;;;;4932021;29;20206;-86
2021/07/10 03:28:01;;;;;;;29.27;23.17;;;19.60;99.90;;;;;;4920526;29;20523;-85
2021/07/10 03:30:30;;;;;;;27.50;23.97;;;19.70;99.90;;;;;;4932390;29;20498;-85
2021/07/10 03:33:01;;;;;;;25.97;23.17;;;19.60;99.90;;;;;;4938567;29;20496;-87
2021/07/10 03:35:30;;;;;;;27.83;22.73;;;19.70;99.90;;;;;;4933937;29;20206;-86
2021/07/10 03:38:00;;;;;;;27.70;22.33;;;19.70;99.90;;;;;;4941869;28;20467;-89
2021/07/10 03:40:30;;;;;;;29.60;21.87;;;19.70;99.90;;;;;;4944892;28;20256;-85
2021/07/10 03:43:00;;;;;;;26.63;22.57;;;19.80;99.90;;;;;;4942639;28;20309;-87
2021/07/10 03:45:29;;;;;;;28.63;22.47;;;19.70;99.90;;;;;;4942966;28;20199;-87
2021/07/10 03:48:03;;;;;;;25.67;22.03;;;19.70;99.90;;;;;;4941184;28;20229;-87
2021/07/10 03:50:31;;;;;;;25.37;20.77;;;19.70;99.90;;;;;;4944531;28;20229;-86
2021/07/10 03:53:03;;;;;;;27.67;21.53;;;19.70;99.90;;;;;;4936571;28;20273;-84
2021/07/10 03:55:32;;;;;;;27.87;22.40;;;19.70;99.90;;;;;;4947763;28;20191;-86
2021/07/10 03:58:02;;;;;;;28.90;22.27;;;19.70;99.90;;;;;;4936675;28;20210;-86
2021/07/10 04:00:31;;;;;;;25.63;21.20;;;19.80;99.90;;;;;;4941978;28;20206;-85
2021/07/10 04:03:00;;;;;;;27.20;22.20;;;19.80;99.90;;;;;;4933019;29;20202;-86
2021/07/10 04:05:30;;;;;;;27.57;22.83;;;19.90;99.90;;;;;;4926322;29;20202;-87
2021/07/10 04:07:59;;;;;;;28.03;23.93;;;19.80;99.90;;;;;;4930551;28;20232;-86
2021/07/10 04:10:29;;;;;;;28.90;23.23;;;19.80;99.90;;;;;;4942893;28;20194;-86
2021/07/10 04:12:58;;;;;;;27.37;22.13;;;19.80;99.90;;;;;;4941394;28;20190;-87
2021/07/10 04:15:27;;;;;;;26.93;22.57;;;19.80;99.90;;;;;;4935573;28;20197;-85
2021/07/10 04:17:56;;;;;;;25.93;21.97;;;19.80;99.90;;;;;;4921505;29;20677;-85
2021/07/10 04:20:25;;;;;;;27.30;22.60;;;19.90;99.90;;;;;;4949536;28;20194;-87
2021/07/10 04:22:55;;;;;;;27.53;22.30;;;19.80;99.90;;;;;;4946434;28;20178;-88
2021/07/10 04:25:24;;;;;;;31.53;22.90;;;19.70;99.90;;;;;;4946349;28;20262;-86
2021/07/10 04:27:53;;;;;;;27.37;23.00;;;19.60;99.90;;;;;;4923208;29;20312;-84
2021/07/10 04:30:23;;;;;;;28.50;23.80;;;19.50;99.90;;;;;;4926022;29;20206;-87
2021/07/10 04:32:52;;;;;;;31.23;24.43;;;19.60;99.90;;;;;;4921731;29;20221;-87
2021/07/10 04:35:22;;;;;;;27.60;23.30;;;19.60;99.90;;;;;;4928024;29;20234;-87
2021/07/10 04:37:51;;;;;;;30.30;24.00;;;19.50;99.90;;;;;;4919591;29;20417;-86
2021/07/10 04:40:22;;;;;;;31.67;24.87;;;19.60;99.90;;;;;;4935714;28;20230;-87
2021/07/10 04:42:51;;;;;;;29.07;24.37;;;19.60;99.90;;;;;;4945149;28;20226;-87
2021/07/10 04:45:20;;;;;;;32.13;25.23;;;19.60;99.90;;;;;;4935033;29;20206;-87
2021/07/10 04:47:49;;;;;;;31.07;24.57;;;19.70;99.90;;;;;;4927329;29;20542;-87
2021/07/10 04:50:18;;;;;;;33.70;25.50;;;19.70;99.90;;;;;;4922382;29;20269;-85
2021/07/10 04:52:47;;;;;;;29.93;24.37;;;19.70;99.90;;;;;;4926232;29;20550;-87
2021/07/10 04:55:16;;;;;;;31.80;24.60;;;19.70;99.90;;;;;;4924946;29;20723;-88
2021/07/10 04:57:48;;;;;;;32.07;24.10;;;19.70;99.90;;;;;;4920425;29;20225;-87
2021/07/10 05:00:18;;;;;;;35.37;24.93;;;19.70;99.90;;;;;;4918359;29;20557;-86
2021/07/10 05:02:46;;;;;;;29.37;23.67;;;19.70;99.90;;;;;;4924652;29;20230;-84
2021/07/10 05:05:16;;;;;;;29.13;23.47;;;19.60;99.90;;;;;;4926485;29;20209;-86
2021/07/10 05:07:45;;;;;;;30.33;23.53;;;19.70;99.90;;;;;;4921320;29;20226;-86
2021/07/10 05:10:14;;;;;;;26.30;23.50;;;19.70;99.90;;;;;;4934076;29;20217;-84
2021/07/10 05:12:44;;;;;;;27.30;24.30;;;19.70;99.90;;;;;;4923008;29;20209;-88
2021/07/10 05:15:17;;;;;;;30.40;25.07;;;19.60;99.90;;;;;;4920322;29;20456;-88
2021/07/10 05:17:45;;;;;;;30.87;26.33;;;19.50;99.90;;;;;;4922539;29;20199;-87
2021/07/10 05:20:15;;;;;;;31.90;26.17;;;19.60;99.90;;;;;;4927836;28;20607;-85
2021/07/10 05:22:43;;;;;;;32.67;26.50;;;19.60;99.90;;;;;;4934175;28;20206;-86
2021/07/10 05:25:13;;;;;;;31.17;25.87;;;19.60;99.90;;;;;;4939413;28;20834;-87
2021/07/10 05:27:44;;;;;;;33.30;26.23;;;19.60;99.90;;;;;;4928299;28;20213;-85
2021/07/10 05:30:17;;;;;;;33.70;26.40;;;19.60;99.90;;;;;;4943281;28;20198;-86
2021/07/10 05:32:46;;;;;;;30.87;26.10;;;19.60;99.90;;;;;;4931904;29;20721;-86
2021/07/10 05:35:18;;;;;;;30.93;25.57;;;19.50;99.90;;;;;;4897370;29;20210;-84
2021/07/10 05:37:48;;;;;;;30.87;22.37;;;19.50;99.90;;;;;;4917643;29;20202;-84
2021/07/10 05:40:18;;;;;;;29.47;24.50;;;19.40;99.90;;;;;;4922605;29;20213;-85
2021/07/10 05:42:48;;;;;;;25.93;21.87;;;19.40;99.90;;;;;;4942135;28;20210;-86
2021/07/10 05:45:21;;;;;;;24.83;19.73;;;19.30;99.90;;;;;;4943772;28;20528;-85
2021/07/10 05:47:50;;;;;;;22.30;18.63;;;19.20;99.90;;;;;;4933886;29;20229;-85
2021/07/10 05:50:20;;;;;;;20.00;17.70;;;19.20;99.90;;;;;;4941326;28;20202;-85
2021/07/10 05:52:49;;;;;;;18.87;16.87;;;19.20;99.90;;;;;;4944998;28;20202;-85
2021/07/10 05:55:18;;;;;;;22.70;15.17;;;19.30;99.90;;;;;;4943309;28;20221;-86
2021/07/10 05:57:47;;;;;;;18.43;14.70;;;19.30;99.90;;;;;;4938865;28;20202;-84
2021/07/10 06:00:15;;;;;;;16.60;13.87;;;19.30;99.90;;;;;;4901318;29;20862;-86
2021/07/10 06:02:53;;;;;;;15.40;12.80;;;19.30;99.90;;;;;;4921369;29;20587;-85
2021/07/10 06:05:22;;;;;;;12.53;11.27;;;19.10;99.90;;;;;;4917394;29;20218;-85
2021/07/10 06:07:51;;;;;;;13.73;10.90;;;19.10;99.90;;;;;;4915147;28;20238;-87
2021/07/10 06:10:20;;;;;;;13.30;10.73;;;19.10;99.90;;;;;;4942986;28;20229;-85
2021/07/10 06:12:50;;;;;;;9.20;8.40;;;19.20;99.90;;;;;;4919265;29;20210;-84
2021/07/10 06:15:20;;;;;;;8.37;7.23;;;19.10;99.90;;;;;;4917600;29;20286;-87
2021/07/10 06:17:50;;;;;;;7.83;6.67;;;18.90;99.90;;;;;;4921241;29;20214;-85
2021/07/10 06:20:22;;;;;;;7.77;6.70;;;18.70;99.90;;;;;;4926871;29;20202;-85
2021/07/10 06:22:53;;;;;;;7.87;7.17;;;18.90;99.90;;;;;;4914018;28;20206;-85
2021/07/10 06:25:22;;;;;;;8.27;7.17;;;18.90;99.90;;;;;;4909611;29;20210;-87
2021/07/10 06:27:53;;;;;;;8.67;6.90;;;19.00;99.90;;;;;;4925537;29;20266;-85
2021/07/10 06:30:22;;;;;;;6.70;5.97;;;19.20;99.90;;;;;;4924955;29;20218;-86
2021/07/10 06:32:51;;;;;;;5.60;5.10;;;19.10;99.90;;;;;;4928002;29;20210;-85
2021/07/10 06:35:28;;;;;;;7.53;5.40;;;19.20;99.90;;;;;;4937926;28;20414;-87
2021/07/10 06:37:57;;;;;;;5.00;4.60;;;19.40;99.90;;;;;;4926336;29;20217;-85
2021/07/10 06:40:26;;;;;;;7.03;4.83;;;19.70;99.90;;;;;;4928760;29;20206;-85
2021/07/10 06:42:55;;;;;;;5.60;4.97;;;19.80;99.90;;;;;;4930232;29;21092;-85
2021/07/10 06:45:24;;;;;;;5.80;5.30;;;20.00;99.90;;;;;;4929456;29;20216;-86
2021/07/10 06:47:55;;;;;;;5.67;5.17;;;20.30;99.00;;;;;;4928084;29;20265;-86
2021/07/10 06:50:28;;;;;;;6.30;5.70;;;20.50;99.90;;;;;;4933907;29;21133;-86
2021/07/10 06:52:57;;;;;;;6.77;6.00;;;20.70;99.90;;;;;;4930982;29;20210;-86
2021/07/10 06:55:26;;;;;;;6.97;6.27;;;20.80;95.10;;;;;;4930005;29;20206;-85
2021/07/10 06:57:54;;;;;;;9.65;7.18;;;20.80;96.60;;;;;;4919026;29;20594;-86
2021/07/10 07:00:24;;;;;;;8.13;6.68;;;20.70;95.70;;;;;;4919718;29;20210;-86
2021/07/10 07:02:53;;;;;;;7.70;7.00;;;20.50;96.20;;;;;;4921389;29;20415;-86
2021/07/10 07:05:24;;;;;;;7.50;6.53;;;20.40;97.00;;;;;;4920707;29;20208;-84
2021/07/10 07:07:53;;;;;;;7.30;6.60;;;20.30;96.40;;;;;;4919003;29;20241;-85
2021/07/10 07:10:21;;;;;;;9.57;7.03;;;20.30;96.10;;;;;;4928649;29;20221;-85
2021/07/10 07:12:50;;;;;;;7.47;6.47;;;20.20;96.20;;;;;;4938526;29;20298;-87
2021/07/10 07:15:20;;;;;;;8.90;6.53;;;20.10;97.20;;;;;;4931783;29;20214;-85
2021/07/10 07:17:48;;;;;;;6.70;6.10;;;20.00;96.50;;;;;;4930987;29;20234;-86
2021/07/10 07:20:18;;;;;;;10.47;7.00;;;19.90;97.60;;;;;;4925073;29;20210;-88
2021/07/10 07:22:51;;;;;;;7.63;7.00;;;19.90;98.30;;;;;;4923428;29;20265;-85
2021/07/10 07:25:21;;;;;;;7.73;6.93;;;19.90;99.60;;;;;;4919250;29;21409;-84
2021/07/10 07:27:52;;;;;;;7.10;6.60;;;20.00;99.90;;;;;;4919104;29;20635;-85
2021/07/10 07:30:21;;;;;;;7.20;6.60;;;20.10;97.00;;;;;;4919922;29;20254;-86
2021/07/10 07:32:53;;;;;;;7.53;6.80;;;20.30;96.80;;;;;;4919434;29;20210;-87
2021/07/10 07:35:22;;;;;;;7.93;7.07;;;20.60;97.20;;;;;;4920180;29;20210;-87
2021/07/10 07:37:52;;;;;;;7.70;7.07;;;20.70;92.90;;;;;;4927673;28;20205;-86
2021/07/10 07:40:21;;;;;;;7.70;7.10;;;20.70;94.50;;;;;;4942059;28;20225;-85
2021/07/10 07:42:52;;;;;;;6.70;6.30;;;20.80;95.00;;;;;;4943003;28;20230;-85
2021/07/10 07:45:22;;;;;;;5.47;4.80;;;21.00;93.60;;;;;;4929494;28;21326;-83
2021/07/10 07:47:51;;;;;;;5.35;4.95;;;21.00;90.90;;;;;;4921323;29;20202;-85
2021/07/10 07:50:21;;;;;;;6.70;5.00;;;20.60;92.10;;;;;;4925342;28;20246;-86
2021/07/10 07:52:50;;;;;;;5.30;4.90;;;20.50;92.30;;;;;;4922330;29;20225;-85
2021/07/10 07:55:20;;;;;;;4.23;3.93;;;20.50;93.10;;;;;;4919680;29;20210;-85
2021/07/10 07:57:49;;;;;;;4.40;3.97;;;20.40;92.50;;;;;;4923191;29;20237;-85
2021/07/10 08:00:21;;;;;;;4.17;3.30;;;20.30;92.80;;;;;;4910368;29;20293;-86
2021/07/10 08:02:54;;;;;;;3.37;3.10;;;20.20;92.00;;;;;;4939220;29;20206;-85
2021/07/10 08:05:24;;;;;;;3.10;2.90;;;19.90;92.20;;;;;;4938465;28;20214;-85
2021/07/10 08:07:53;;;;;;;3.10;2.80;;;19.90;92.50;;;;;;4914101;29;20218;-86
2021/07/10 08:10:23;;;;;;;2.83;2.63;;;19.80;92.40;;;;;;4934366;29;20230;-87
2021/07/10 08:12:53;;;;;;;2.97;2.70;;;19.80;92.60;;;;;;4935579;29;20197;-86
2021/07/10 08:15:24;;;;;;;3.00;2.70;;;19.90;92.10;;;;;;4941230;28;20187;-85
2021/07/10 08:17:54;;;;;;;3.30;3.00;;;20.00;92.90;;;;;;4941319;28;20234;-85
2021/07/10 08:20:24;;;;;;;3.43;2.60;;;20.30;94.00;;;;;;4923205;29;20218;-86
2021/07/10 08:22:53;;;;;;;3.00;2.80;;;20.50;92.20;;;;;;4928184;29;20238;-87
2021/07/10 08:25:24;;;;;;;2.85;2.63;;;20.60;91.90;;;;;;4930472;29;20194;-86
2021/07/10 08:27:55;;;;;;;3.50;2.50;;;20.60;91.10;;;;;;4933722;29;20744;-86
2021/07/10 08:30:24;;;;;;;3.47;2.83;;;20.70;91.40;;;;;;4926671;29;20244;-84
2021/07/10 08:32:53;;;;;;;2.50;2.30;;;20.80;91.40;;;;;;4923618;29;20293;-84
2021/07/10 08:35:22;;;;;;;3.58;2.50;;;20.80;91.00;;;;;;4933600;29;20215;-85
2021/07/10 08:37:51;;;;;;;2.55;2.35;;;20.90;91.10;;;;;;4935037;29;21004;-83
2021/07/10 08:40:22;;;;;;;2.70;2.50;;;20.80;90.70;;;;;;4940826;28;20226;-83
2021/07/10 08:42:54;;;;;;;3.38;2.42;;;20.90;91.20;;;;;;4929973;28;20218;-85
2021/07/10 08:45:23;;;;;;;3.20;2.30;;;21.10;91.30;;;;;;4942717;28;20279;-85
2021/07/10 08:47:52;;;;;;;3.47;2.38;;;21.00;90.30;;;;;;4941977;28;20206;-86
2021/07/10 08:50:22;;;;;;;2.13;2.03;;;21.10;91.10;;;;;;4937869;28;20444;-86
2021/07/10 08:52:52;;;;;;;2.20;2.10;;;21.20;91.50;;;;;;4945421;28;20194;-85
2021/07/10 08:55:22;;;;;;;2.53;2.30;;;21.20;90.70;;;;;;4946862;28;20191;-85
2021/07/10 08:57:54;;;;;;;3.65;2.10;;;21.40;91.70;;;;;;4941749;28;20202;-85
2021/07/10 09:00:25;;;;;;;2.28;2.17;;;21.50;90.40;;;;;;4929397;29;20206;-86
2021/07/10 09:02:56;;;;;;;2.25;2.05;;;21.60;90.90;;;;;;4916135;29;20337;-87
2021/07/10 09:05:30;;;;;;;2.22;2.03;;;21.80;90.90;;;;;;4919673;29;20249;-86
2021/07/10 09:08:21;;;;;;;3.60;2.15;;;22.40;90.70;;;;;;4927525;29;20209;-88
2021/07/10 09:10:54;;;;;;;2.30;2.10;;;22.90;88.10;;;;;;4925807;29;20237;-86
2021/07/10 09:13:36;;;;;;;2.10;2.00;;;23.20;87.00;;;;;;4919447;29;20207;-87
2021/07/10 09:16:09;;;;;;;2.00;1.90;;;22.90;85.50;;;;;;4918607;29;20784;-85
2021/07/10 09:18:43;;;;;;;1.95;1.88;;;22.60;84.80;;;;;;4918386;29;21228;-86
2021/07/10 09:21:15;;;;;;;2.15;2.05;;;22.20;85.20;;;;;;4918427;29;20213;-86
2021/07/10 09:23:46;;;;;;;2.20;2.10;;;22.10;85.20;;;;;;4925894;28;20281;-85
2021/07/10 09:26:22;;;;;;;2.13;1.92;;;22.10;85.10;;;;;;4922863;29;20210;-87
2021/07/10 09:29:11;;;;;;;2.58;2.38;;;22.10;85.90;;;;;;4903826;29;20206;-85
2021/07/10 09:31:42;;;;;;;2.65;2.35;;;22.30;85.50;;;;;;4922317;29;20221;-87
2021/07/10 09:34:15;;;;;;;2.50;2.10;;;22.10;85.40;;;;;;4924779;29;20216;-85
2021/07/10 09:36:57;;;;;;;2.45;2.25;;;22.10;85.80;;;;;;4901872;29;20218;-87
2021/07/10 09:39:31;;;;;;;2.17;2.08;;;22.00;85.10;;;;;;4924371;29;20217;-86
2021/07/10 09:42:01;;;;;;;2.13;2.00;;;21.90;85.80;;;;;;4928288;29;20210;-85
2021/07/10 09:44:44;;;;;;;2.38;2.10;;;22.20;86.10;;;;;;4935054;29;20248;-87
2021/07/10 09:47:26;;;;;;;2.03;1.85;;;22.40;85.40;;;;;;4929345;29;20707;-85
2021/07/10 09:49:58;;;;;;;2.13;2.00;;;22.60;85.10;;;;;;4943501;28;20258;-85
2021/07/10 09:52:31;;;;;;;2.10;2.00;;;22.80;84.50;;;;;;4923015;29;20217;-86
2021/07/10 09:55:04;;;;;;;2.15;2.05;;;23.10;84.50;;;;;;4923642;29;20210;-86
2021/07/10 09:57:35;;;;;;;4.60;2.20;;;23.10;84.30;;;;;;4917627;29;20210;-87
2021/07/10 10:00:10;;;;;;;2.40;2.30;;;23.10;84.30;;;;;;4939522;28;20437;-86
2021/07/10 10:02:43;;;;;;;2.30;2.10;;;23.00;84.30;;;;;;4939180;29;20213;-87
2021/07/10 10:05:14;;;;;;;2.40;2.28;;;23.10;85.00;;;;;;4911820;29;20328;-85
2021/07/10 10:07:46;;;;;;;2.30;2.20;;;23.30;84.80;;;;;;4923646;29;20213;-85
2021/07/10 10:10:24;;;;;;;2.75;2.45;;;23.50;85.10;;;;;;4940470;28;20541;-85
2021/07/10 10:13:11;;;;;;;2.03;1.92;;;23.70;83.80;;;;;;4950432;28;20210;-85
2021/07/10 10:15:45;;;;;;;2.10;2.00;;;23.70;83.90;;;;;;4936197;29;20622;-85
2021/07/10 10:18:17;;;;;;;2.03;1.92;;;23.70;84.20;;;;;;4929280;29;20209;-86
2021/07/10 10:20:46;;;;;;;2.70;2.00;;;23.80;83.50;;;;;;4933594;29;20587;-86
2021/07/10 10:23:17;;;;;;;3.17;2.40;;;23.60;83.20;;;;;;4932752;29;20205;-86
2021/07/10 10:25:46;;;;;;;2.88;1.70;;;23.60;83.20;;;;;;4939804;29;20206;-85
2021/07/10 10:28:19;;;;;;;2.63;1.98;;;23.50;83.00;;;;;;4920306;29;20225;-85
2021/07/10 10:30:51;;;;;;;1.70;1.60;;;23.50;83.20;;;;;;4923998;29;20276;-86
2021/07/10 10:33:28;;;;;;;3.47;1.88;;;23.50;83.30;;;;;;4926057;29;20206;-85
2021/07/10 10:35:57;;;;;;;1.90;1.80;;;23.50;82.80;;;;;;4936398;28;20221;-84
2021/07/10 10:38:28;;;;;;;1.67;1.58;;;23.50;82.40;;;;;;4921270;29;20218;-86
2021/07/10 10:41:01;;;;;;;1.90;1.80;;;23.50;82.70;;;;;;4931643;29;20206;-85
2021/07/10 10:43:30;;;;;;;4.10;1.95;;;23.30;82.50;;;;;;4942171;28;20198;-88
2021/07/10 10:46:12;;;;;;;2.90;1.90;;;23.20;83.00;;;;;;4938487;28;20245;-85
2021/07/10 10:48:43;;;;;;;3.25;2.25;;;23.50;84.00;;;;;;4929962;29;20263;-83
2021/07/10 10:51:40;;;;;;;3.30;2.15;;;23.70;83.20;;;;;;4935867;29;20233;-85
2021/07/10 10:54:28;;;;;;;2.13;2.03;;;23.60;83.60;;;;;;4938715;28;20200;-84
2021/07/10 10:57:08;;;;;;;2.97;2.05;;;23.70;83.70;;;;;;4944423;28;20880;-86
2021/07/10 10:59:39;;;;;;;2.95;1.90;;;23.80;83.00;;;;;;4920345;29;20233;-84
2021/07/10 11:02:54;;;;;;;2.10;1.90;;;23.90;83.10;;;;;;4927375;29;20210;-88
2021/07/10 11:05:47;;;;;;;1.95;1.85;;;24.00;82.90;;;;;;4927235;28;20358;-85
2021/07/10 11:08:52;;;;;;;1.92;1.83;;;24.20;83.60;;;;;;4923768;29;20206;-84
2021/07/10 11:11:35;;;;;;;4.00;1.70;;;24.30;82.30;;;;;;4922907;29;20233;-87
2021/07/10 11:14:13;;;;;;;3.47;2.30;;;24.10;82.30;;;;;;4925891;29;20210;-85
2021/07/10 11:17:08;;;;;;;1.88;1.60;;;24.00;82.50;;;;;;4923077;29;20214;-88
2021/07/10 11:19:56;;;;;;;1.95;1.80;;;23.80;82.30;;;;;;4929009;29;20203;-87
2021/07/10 11:23:01;;;;;;;4.22;1.73;;;23.90;82.20;;;;;;4944178;28;20542;-86
2021/07/10 11:26:15;;;;;;;1.80;1.70;;;23.90;82.10;;;;;;4947483;28;20257;-87
2021/07/10 11:28:53;;;;;;;1.92;1.50;;;23.90;82.30;;;;;;4933370;29;20203;-86
2021/07/10 11:31:32;;;;;;;1.67;1.52;;;23.90;82.50;;;;;;4940293;28;20519;-84
2021/07/10 11:34:16;;;;;;;2.10;2.00;;;23.90;82.80;;;;;;4929180;29;20237;-87
2021/07/10 11:36:55;;;;;;;1.98;1.88;;;24.10;82.20;;;;;;4919429;29;20210;-85
2021/07/10 11:39:42;;;;;;;2.00;1.90;;;23.90;81.70;;;;;;4924894;29;20209;-85
2021/07/10 11:42:52;;;;;;;2.05;1.95;;;23.90;82.00;;;;;;4922901;29;20676;-84
2021/07/10 11:45:31;;;;;;;2.35;2.05;;;23.70;82.40;;;;;;4929522;29;20214;-85
2021/07/10 11:48:22;;;;;;;2.08;1.98;;;23.50;82.90;;;;;;4921234;29;20607;-84
2021/07/10 11:51:14;;;;;;;1.85;1.75;;;23.50;82.90;;;;;;4912011;29;20245;-87
2021/07/10 11:53:44;;;;;;;3.53;2.38;;;23.30;82.50;;;;;;4912726;29;20854;-85
2021/07/10 11:56:13;;;;;;;4.35;2.22;;;23.20;83.70;;;;;;4930067;29;20438;-85
2021/07/10 11:58:51;;;;;;;2.20;2.10;;;23.20;82.70;;;;;;4922447;29;20198;-88
2021/07/10 12:01:25;;;;;;;2.55;2.40;;;22.90;83.30;;;;;;4923305;29;20206;-87
2021/07/10 12:03:54;;;;;;;3.22;2.92;;;22.90;83.80;;;;;;4918063;29;20297;-85
2021/07/10 12:06:24;;;;;;;2.70;2.60;;;22.80;83.40;;;;;;4917424;29;20692;-86
2021/07/10 12:09:01;;;;;;;2.67;2.58;;;22.60;83.40;;;;;;4901932;29;20225;-85
2021/07/10 12:11:31;;;;;;;3.10;2.90;;;22.70;84.10;;;;;;4922596;29;20755;-84
2021/07/10 12:14:05;;;;;;;2.40;2.30;;;22.80;83.80;;;;;;4923249;29;20544;-85
2021/07/10 12:16:34;;;;;;;2.85;2.60;;;23.00;83.40;;;;;;4933816;29;20202;-87
2021/07/10 12:19:04;;;;;;;3.10;2.80;;;23.20;82.40;;;;;;4939069;28;20201;-87
2021/07/10 12:21:34;;;;;;;2.95;2.75;;;23.20;82.40;;;;;;4938433;29;20624;-86
2021/07/10 12:24:05;;;;;;;2.58;2.38;;;23.50;82.00;;;;;;4928052;29;20211;-85
2021/07/10 12:26:34;;;;;;;2.63;2.53;;;23.70;82.00;;;;;;4928580;29;20253;-89
2021/07/10 12:29:03;;;;;;;2.88;2.58;;;23.70;81.60;;;;;;4918967;29;20324;-87
2021/07/10 12:31:34;;;;;;;2.50;2.40;;;23.60;81.70;;;;;;4921305;29;20579;-86
2021/07/10 12:34:04;;;;;;;3.05;2.90;;;23.50;82.10;;;;;;4923998;29;20848;-84
2021/07/10 12:36:35;;;;;;;3.00;2.80;;;23.90;81.80;;;;;;4920221;29;20289;-85
2021/07/10 12:39:12;;;;;;;3.53;3.08;;;23.80;81.70;;;;;;4922735;29;20805;-87
2021/07/10 12:41:53;;;;;;;3.45;2.88;;;23.90;81.60;;;;;;4930820;29;20212;-88
2021/07/10 12:44:27;;;;;;;3.08;2.80;;;23.70;81.80;;;;;;4941830;28;20210;-87
2021/07/10 12:47:04;;;;;;;3.17;2.67;;;23.50;81.90;;;;;;4926850;28;20194;-86
2021/07/10 12:49:37;;;;;;;3.05;2.90;;;23.20;81.90;;;;;;4945135;28;20204;-85
2021/07/10 12:52:16;;;;;;;2.90;2.70;;;23.10;82.20;;;;;;4944839;28;20218;-87
2021/07/10 12:54:52;;;;;;;2.63;2.53;;;22.90;82.00;;;;;;4946211;28;20261;-87
2021/07/10 12:57:27;;;;;;;2.45;2.25;;;22.70;82.20;;;;;;4942390;28;20209;-85
2021/07/10 13:00:00;;;;;;;2.70;2.50;;;22.60;82.40;;;;;;4930137;29;20217;-84
2021/07/10 13:02:37;;;;;;;2.78;2.60;;;22.70;82.50;;;;;;4941140;28;20256;-87